Time;durP1;ratioP1;P1;durP2;ratioP2;P2;SDS_P1;SDS_P2;PMS_P1;PMS_P2;Temp;Humidity;BMP_temperature;BMP_pressure;BME280_temperature;BME280_humidity;BME280_pressure;Samples;Min_cycle;Max_cycle;Signal;HPM_P1;HPM_P2
2021/03/07 00:01:14;;;;;;;16.70;12.90;;;;;;;;;;5115514;28;20189;-66
2021/03/07 00:03:41;;;;;;;17.85;12.30;;;;;;;;;;5115479;28;20290;-65
2021/03/07 00:06:07;;;;;;;14.63;11.90;;;;;;;;;;5115707;28;20189;-65
2021/03/07 00:08:38;;;;;;;17.85;12.73;;;;;;;;;;5115669;28;20646;-66
2021/03/07 00:11:05;;;;;;;16.35;12.77;;;;;;;;;;5115968;28;20319;-65
2021/03/07 00:13:32;;;;;;;15.00;12.63;;;;;;;;;;5115640;28;20220;-65
2021/03/07 00:15:58;;;;;;;18.88;12.32;;;;;;;;;;5114329;28;20286;-65
2021/03/07 00:18:25;;;;;;;16.95;12.57;;;;;;;;;;5115629;28;20196;-65
2021/03/07 00:20:52;;;;;;;16.95;13.10;;;;;;;;;;5115445;28;20625;-66
2021/03/07 00:23:18;;;;;;;15.38;13.45;;;;;;;;;;5115030;28;20291;-66
2021/03/07 00:25:46;;;;;;;16.83;13.38;;;;;;;;;;5115548;28;20287;-66
2021/03/07 00:28:13;;;;;;;18.23;13.77;;;;;;;;;;5115554;28;20283;-66
2021/03/07 00:30:40;;;;;;;19.65;14.95;;;;;;;;;;5115308;28;20280;-65
2021/03/07 00:33:06;;;;;;;17.27;13.75;;;;;;;;;;5115072;28;20325;-66
2021/03/07 00:35:33;;;;;;;20.55;14.63;;;;;;;;;;5115370;28;20681;-66
2021/03/07 00:38:00;;;;;;;15.90;13.95;;;;;;;;;;5114631;28;20303;-65
2021/03/07 00:40:26;;;;;;;24.17;14.93;;;;;;;;;;5114930;28;20306;-67
2021/03/07 00:42:54;;;;;;;19.88;13.27;;;;;;;;;;5115481;28;20284;-66
2021/03/07 00:45:21;;;;;;;16.38;13.45;;;;;;;;;;5114844;28;20286;-66
2021/03/07 00:47:48;;;;;;;14.13;12.45;;;;;;;;;;5114520;28;20284;-65
2021/03/07 00:50:16;;;;;;;16.15;12.57;;;;;;;;;;5115041;28;20280;-65
2021/03/07 00:52:43;;;;;;;17.33;13.60;;;;;;;;;;5114913;28;20287;-65
2021/03/07 00:55:09;;;;;;;20.92;17.10;;;;;;;;;;5114422;28;20228;-66
2021/03/07 00:57:36;;;;;;;21.92;15.40;;;;;;;;;;5115283;28;20307;-65
2021/03/07 01:00:07;;;;;;;15.52;11.95;;;;;;;;;;5114361;28;20211;-65
2021/03/07 01:02:34;;;;;;;16.83;12.02;;;;;;;;;;5115060;28;20266;-65
2021/03/07 01:05:00;;;;;;;15.60;12.38;;;;;;;;;;5114247;28;20231;-66
2021/03/07 01:07:27;;;;;;;15.88;13.55;;;;;;;;;;5115067;28;20287;-66
2021/03/07 01:09:54;;;;;;;19.25;13.63;;;;;;;;;;5114424;28;20311;-66
2021/03/07 01:12:20;;;;;;;15.48;13.52;;;;;;;;;;5114605;28;20584;-66
2021/03/07 01:14:47;;;;;;;15.15;13.13;;;;;;;;;;5114057;28;20283;-66
2021/03/07 01:17:15;;;;;;;18.33;13.43;;;;;;;;;;5114491;28;20227;-66
2021/03/07 01:19:41;;;;;;;17.83;14.57;;;;;;;;;;5114343;28;20222;-67
2021/03/07 01:22:09;;;;;;;21.42;16.60;;;;;;;;;;5113992;28;20192;-66
2021/03/07 01:24:35;;;;;;;17.52;14.38;;;;;;;;;;5115031;28;20224;-66
2021/03/07 01:27:02;;;;;;;20.20;13.30;;;;;;;;;;5113782;28;20286;-66
2021/03/07 01:29:29;;;;;;;16.13;11.80;;;;;;;;;;5113905;28;20287;-66
2021/03/07 01:31:56;;;;;;;14.80;12.02;;;;;;;;;;5114118;28;20193;-66
2021/03/07 01:34:23;;;;;;;21.98;13.55;;;;;;;;;;5114176;28;20291;-66
2021/03/07 01:36:50;;;;;;;14.55;12.85;;;;;;;;;;5113751;28;20303;-66
2021/03/07 01:39:17;;;;;;;18.92;13.38;;;;;;;;;;5114151;28;20200;-66
2021/03/07 01:41:43;;;;;;;21.10;14.25;;;;;;;;;;5114400;28;20624;-65
2021/03/07 01:44:10;;;;;;;16.58;12.05;;;;;;;;;;5114329;28;20193;-66
2021/03/07 01:46:37;;;;;;;14.43;12.77;;;;;;;;;;5114128;28;20337;-66
2021/03/07 01:49:04;;;;;;;13.00;11.07;;;;;;;;;;5113723;28;20650;-66
2021/03/07 01:51:32;;;;;;;12.88;11.52;;;;;;;;;;5113663;28;20279;-66
2021/03/07 01:53:58;;;;;;;18.42;11.40;;;;;;;;;;5114140;28;20248;-66
2021/03/07 01:56:25;;;;;;;16.23;12.43;;;;;;;;;;5113839;28;20192;-65
2021/03/07 01:58:53;;;;;;;14.32;11.73;;;;;;;;;;5114361;28;20292;-67
2021/03/07 02:01:20;;;;;;;17.38;12.23;;;;;;;;;;5114256;28;20337;-66
2021/03/07 02:03:50;;;;;;;15.00;11.70;;;;;;;;;;5113604;28;20725;-66
2021/03/07 02:06:17;;;;;;;13.15;11.73;;;;;;;;;;5114406;28;20279;-66
2021/03/07 02:08:44;;;;;;;13.45;12.00;;;;;;;;;;5113805;28;20288;-66
2021/03/07 02:11:11;;;;;;;14.40;12.20;;;;;;;;;;5114293;28;20224;-66
2021/03/07 02:13:39;;;;;;;14.30;11.60;;;;;;;;;;5113731;28;20199;-66
2021/03/07 02:16:07;;;;;;;13.85;10.77;;;;;;;;;;5113570;28;20245;-66
2021/03/07 02:18:34;;;;;;;17.13;11.15;;;;;;;;;;5113341;28;20232;-66
2021/03/07 02:21:04;;;;;;;14.90;11.85;;;;;;;;;;5113734;28;20287;-65
2021/03/07 02:23:33;;;;;;;15.15;12.50;;;;;;;;;;5113401;28;20329;-65
2021/03/07 02:26:00;;;;;;;17.25;11.75;;;;;;;;;;5113600;28;20199;-65
2021/03/07 02:28:27;;;;;;;15.18;11.90;;;;;;;;;;5114427;28;20197;-65
2021/03/07 02:30:55;;;;;;;17.83;12.20;;;;;;;;;;5113630;28;20314;-66
2021/03/07 02:33:24;;;;;;;13.82;11.32;;;;;;;;;;5114368;28;20276;-66
2021/03/07 02:35:55;;;;;;;17.35;12.48;;;;;;;;;;5113418;28;20189;-66
2021/03/07 02:38:24;;;;;;;15.32;12.43;;;;;;;;;;5113495;28;20254;-66
2021/03/07 02:40:53;;;;;;;13.70;11.48;;;;;;;;;;5116358;28;20330;-65
2021/03/07 02:43:22;;;;;;;15.20;12.05;;;;;;;;;;5117026;28;20203;-65
2021/03/07 02:45:49;;;;;;;15.43;11.15;;;;;;;;;;5117062;28;20666;-65
2021/03/07 02:48:17;;;;;;;14.02;12.55;;;;;;;;;;5117048;28;20637;-65
2021/03/07 02:50:45;;;;;;;16.92;12.57;;;;;;;;;;5116910;28;20199;-65
2021/03/07 02:53:15;;;;;;;22.65;12.98;;;;;;;;;;5116875;28;20329;-65
2021/03/07 02:55:43;;;;;;;15.10;12.93;;;;;;;;;;5117801;28;20283;-65
2021/03/07 02:58:12;;;;;;;15.35;13.60;;;;;;;;;;5117171;28;20303;-65
2021/03/07 03:00:49;;;;;;;20.30;13.27;;;;;;;;;;5117113;28;20299;-66
2021/03/07 03:03:16;;;;;;;16.92;13.40;;;;;;;;;;5117858;28;20181;-66
2021/03/07 03:05:43;;;;;;;16.48;13.77;;;;;;;;;;5116915;28;20295;-66
2021/03/07 03:08:10;;;;;;;19.30;14.15;;;;;;;;;;5117130;28;20239;-67
2021/03/07 03:10:37;;;;;;;14.23;12.68;;;;;;;;;;5116529;28;20260;-66
2021/03/07 03:13:05;;;;;;;14.30;12.52;;;;;;;;;;5117070;28;20203;-66
2021/03/07 03:15:32;;;;;;;14.75;12.40;;;;;;;;;;5117206;28;20283;-66
2021/03/07 03:18:00;;;;;;;17.58;14.27;;;;;;;;;;5116443;28;20769;-66
2021/03/07 03:20:28;;;;;;;18.60;12.05;;;;;;;;;;5117083;28;20196;-66
2021/03/07 03:22:55;;;;;;;17.00;12.85;;;;;;;;;;5116772;28;20196;-66
2021/03/07 03:25:22;;;;;;;14.13;12.35;;;;;;;;;;5116211;28;20289;-66
2021/03/07 03:27:49;;;;;;;14.77;13.25;;;;;;;;;;5116712;28;20284;-66
2021/03/07 03:30:16;;;;;;;17.55;14.35;;;;;;;;;;5116590;28;20283;-66
2021/03/07 03:32:43;;;;;;;24.83;13.35;;;;;;;;;;5116490;28;20624;-64
2021/03/07 03:35:12;;;;;;;15.93;13.02;;;;;;;;;;5116356;28;20216;-65
2021/03/07 03:37:39;;;;;;;24.33;11.95;;;;;;;;;;5116504;28;20299;-66
2021/03/07 03:40:08;;;;;;;16.80;15.07;;;;;;;;;;5115949;28;20749;-65
2021/03/07 03:42:36;;;;;;;18.30;13.27;;;;;;;;;;5115937;28;20240;-65
2021/03/07 03:45:04;;;;;;;17.75;13.68;;;;;;;;;;5116321;28;20283;-65
2021/03/07 03:47:30;;;;;;;16.75;14.20;;;;;;;;;;5116306;28;20291;-65
2021/03/07 03:49:58;;;;;;;18.42;12.45;;;;;;;;;;5116140;28;20612;-65
2021/03/07 03:52:27;;;;;;;21.75;13.88;;;;;;;;;;5116056;28;20200;-65
2021/03/07 03:54:57;;;;;;;18.85;13.38;;;;;;;;;;5116317;28;20593;-65
2021/03/07 03:57:26;;;;;;;17.05;12.65;;;;;;;;;;5116377;28;20324;-65
2021/03/07 03:59:56;;;;;;;15.45;13.32;;;;;;;;;;5115921;28;20282;-65
2021/03/07 04:02:24;;;;;;;29.33;14.00;;;;;;;;;;5115880;28;20242;-65
2021/03/07 04:04:51;;;;;;;16.52;13.73;;;;;;;;;;5115825;28;20276;-65
2021/03/07 04:07:18;;;;;;;25.35;15.15;;;;;;;;;;5115669;28;20284;-65
2021/03/07 04:09:46;;;;;;;20.38;14.65;;;;;;;;;;5115741;28;20328;-65
2021/03/07 04:12:13;;;;;;;19.10;15.05;;;;;;;;;;5115671;28;20283;-65
2021/03/07 04:14:40;;;;;;;18.60;13.43;;;;;;;;;;5115625;28;20543;-65
2021/03/07 04:17:07;;;;;;;16.02;13.43;;;;;;;;;;5116139;28;20346;-65
2021/03/07 04:19:34;;;;;;;15.82;12.77;;;;;;;;;;5115231;28;20287;-65
2021/03/07 04:22:01;;;;;;;30.00;14.50;;;;;;;;;;5116107;28;20628;-65
2021/03/07 04:24:28;;;;;;;18.58;14.25;;;;;;;;;;5115431;28;20231;-65
2021/03/07 04:26:57;;;;;;;17.55;13.10;;;;;;;;;;5115638;28;20288;-65
2021/03/07 04:29:25;;;;;;;21.48;13.88;;;;;;;;;;5114970;28;20238;-65
2021/03/07 04:31:52;;;;;;;22.48;15.07;;;;;;;;;;5114966;28;20200;-65
2021/03/07 04:34:19;;;;;;;14.20;12.70;;;;;;;;;;5115353;28;20280;-65
2021/03/07 04:36:46;;;;;;;16.92;14.13;;;;;;;;;;5114730;28;20257;-65
2021/03/07 04:39:13;;;;;;;17.00;13.50;;;;;;;;;;5114785;28;20232;-65
2021/03/07 04:41:39;;;;;;;16.75;13.55;;;;;;;;;;5115823;28;20279;-65
2021/03/07 04:44:08;;;;;;;27.45;14.50;;;;;;;;;;5115077;28;20200;-65
2021/03/07 04:46:34;;;;;;;19.05;13.73;;;;;;;;;;5114827;28;20392;-65
2021/03/07 04:49:01;;;;;;;21.80;14.27;;;;;;;;;;5115615;28;20231;-65
2021/03/07 04:51:28;;;;;;;17.10;13.25;;;;;;;;;;5114905;28;20204;-65
2021/03/07 04:53:55;;;;;;;20.42;14.05;;;;;;;;;;5114551;28;20688;-65
2021/03/07 04:56:22;;;;;;;20.08;15.45;;;;;;;;;;5114705;28;20292;-65
2021/03/07 04:58:49;;;;;;;17.92;13.15;;;;;;;;;;5114362;28;20212;-65
2021/03/07 05:01:16;;;;;;;16.40;13.55;;;;;;;;;;5114438;28;20284;-68
2021/03/07 05:03:43;;;;;;;14.73;12.45;;;;;;;;;;5113930;28;20283;-66
2021/03/07 05:06:11;;;;;;;21.80;14.57;;;;;;;;;;5114741;28;20291;-65
2021/03/07 05:08:38;;;;;;;16.48;13.60;;;;;;;;;;5115106;28;20193;-66
2021/03/07 05:11:05;;;;;;;20.40;15.35;;;;;;;;;;5114383;28;20717;-66
2021/03/07 05:13:31;;;;;;;17.90;14.20;;;;;;;;;;5114782;28;20193;-65
2021/03/07 05:15:58;;;;;;;17.20;15.00;;;;;;;;;;5114175;28;20284;-66
2021/03/07 05:18:26;;;;;;;18.67;15.98;;;;;;;;;;5114552;28;20310;-65
2021/03/07 05:20:53;;;;;;;17.52;15.60;;;;;;;;;;5114416;28;20271;-66
2021/03/07 05:23:20;;;;;;;17.88;15.13;;;;;;;;;;5114030;28;20306;-65
2021/03/07 05:25:47;;;;;;;19.88;16.23;;;;;;;;;;5114301;28;20288;-65
2021/03/07 05:28:14;;;;;;;24.00;15.48;;;;;;;;;;5114288;28;20275;-65
2021/03/07 05:30:40;;;;;;;22.27;15.82;;;;;;;;;;5114732;28;20613;-65
2021/03/07 05:33:07;;;;;;;20.05;16.27;;;;;;;;;;5113908;28;20244;-66
2021/03/07 05:35:35;;;;;;;20.10;14.20;;;;;;;;;;5114728;28;20227;-65
2021/03/07 05:38:02;;;;;;;23.63;15.48;;;;;;;;;;5114138;28;20227;-67
2021/03/07 05:40:29;;;;;;;19.10;16.70;;;;;;;;;;5117488;27;20295;-65
2021/03/07 05:42:56;;;;;;;20.42;17.52;;;;;;;;;;5133856;27;20288;-65
2021/03/07 05:45:23;;;;;;;22.30;17.00;;;;;;;;;;5134567;27;20195;-65
2021/03/07 05:47:52;;;;;;;17.63;15.77;;;;;;;;;;5134895;27;20283;-65
2021/03/07 05:50:19;;;;;;;29.08;17.65;;;;;;;;;;5134627;27;20653;-66
2021/03/07 05:52:47;;;;;;;25.70;17.35;;;;;;;;;;5134096;28;20290;-64
2021/03/07 05:55:14;;;;;;;21.75;17.98;;;;;;;;;;5133342;28;20203;-64
2021/03/07 05:57:41;;;;;;;21.08;15.50;;;;;;;;;;5133127;28;20307;-64
2021/03/07 06:00:10;;;;;;;19.85;16.08;;;;;;;;;;5133397;28;20196;-64
2021/03/07 06:02:36;;;;;;;19.13;16.00;;;;;;;;;;5133922;28;20199;-64
2021/03/07 06:05:04;;;;;;;19.58;15.40;;;;;;;;;;5133226;28;20245;-64
2021/03/07 06:07:30;;;;;;;25.10;17.27;;;;;;;;;;5133400;28;20191;-64
2021/03/07 06:10:11;;;;;;;21.45;15.80;;;;;;;;;;5133422;28;20252;-63
2021/03/07 06:12:38;;;;;;;19.83;16.20;;;;;;;;;;5132772;28;20309;-65
2021/03/07 06:15:06;;;;;;;19.52;15.38;;;;;;;;;;5135667;27;20223;-64
2021/03/07 06:17:40;;;;;;;19.35;15.60;;;;;;;;;;5138227;27;20257;-64
2021/03/07 06:20:08;;;;;;;17.45;14.75;;;;;;;;;;5138424;27;20507;-64
2021/03/07 06:22:35;;;;;;;22.55;15.50;;;;;;;;;;5138036;27;20192;-64
2021/03/07 06:25:03;;;;;;;17.08;14.68;;;;;;;;;;5138387;27;20223;-64
2021/03/07 06:27:31;;;;;;;17.42;14.73;;;;;;;;;;5138050;27;20297;-65
2021/03/07 06:30:00;;;;;;;18.58;14.10;;;;;;;;;;5137109;27;20282;-64
2021/03/07 06:32:28;;;;;;;17.00;13.07;;;;;;;;;;5136722;27;20203;-64
2021/03/07 06:34:55;;;;;;;17.08;15.38;;;;;;;;;;5136907;27;20285;-66
2021/03/07 06:37:22;;;;;;;17.80;14.20;;;;;;;;;;5137604;27;20307;-64
2021/03/07 06:39:49;;;;;;;16.38;14.68;;;;;;;;;;5137884;27;20192;-66
2021/03/07 06:42:17;;;;;;;17.85;14.57;;;;;;;;;;5135737;27;20236;-64
2021/03/07 06:44:58;;;;;;;23.70;16.00;;;;;;;;;;5137720;27;20234;-64
2021/03/07 06:47:25;;;;;;;18.73;15.73;;;;;;;;;;5137100;27;20239;-63
2021/03/07 06:50:06;;;;;;;21.98;14.93;;;;;;;;;;5137667;27;20248;-65
2021/03/07 06:52:33;;;;;;;24.25;15.20;;;;;;;;;;5137893;27;20598;-65
2021/03/07 06:55:04;;;;;;;18.33;14.35;;;;;;;;;;5137370;27;20228;-64
2021/03/07 06:57:31;;;;;;;25.15;15.52;;;;;;;;;;5136939;27;20304;-64
2021/03/07 07:00:00;;;;;;;18.33;14.55;;;;;;;;;;5137198;27;20231;-65
2021/03/07 07:02:26;;;;;;;20.83;14.05;;;;;;;;;;5136647;27;20261;-64
2021/03/07 07:04:53;;;;;;;18.70;14.57;;;;;;;;;;5136999;27;20227;-65
2021/03/07 07:07:21;;;;;;;18.33;14.73;;;;;;;;;;5137202;27;20207;-64
2021/03/07 07:09:49;;;;;;;17.15;14.07;;;;;;;;;;5135797;27;20580;-64
2021/03/07 07:12:20;;;;;;;27.27;15.43;;;;;;;;;;5135196;27;20276;-66
2021/03/07 07:14:47;;;;;;;18.83;15.13;;;;;;;;;;5136888;27;20242;-65
2021/03/07 07:17:16;;;;;;;19.52;15.20;;;;;;;;;;5136746;27;20330;-64
2021/03/07 07:19:43;;;;;;;19.70;14.80;;;;;;;;;;5136571;27;20196;-64
2021/03/07 07:22:11;;;;;;;18.13;15.27;;;;;;;;;;5137095;27;20279;-65
2021/03/07 07:24:39;;;;;;;18.00;13.55;;;;;;;;;;5136873;27;20192;-65
2021/03/07 07:27:05;;;;;;;17.83;14.05;;;;;;;;;;5136526;27;20534;-65
2021/03/07 07:29:33;;;;;;;17.98;15.10;;;;;;;;;;5136340;27;20284;-68
2021/03/07 07:32:03;;;;;;;20.67;15.10;;;;;;;;;;5136558;27;20283;-64
2021/03/07 07:34:33;;;;;;;23.20;14.30;;;;;;;;;;5136334;27;20284;-64
2021/03/07 07:37:02;;;;;;;22.92;14.02;;;;;;;;;;5136507;27;20286;-65
2021/03/07 07:39:31;;;;;;;18.02;13.57;;;;;;;;;;5136249;27;20192;-65
2021/03/07 07:41:58;;;;;;;18.45;13.63;;;;;;;;;;5136678;27;20619;-65
2021/03/07 07:44:29;;;;;;;17.58;13.07;;;;;;;;;;5133881;27;20241;-64
2021/03/07 07:46:57;;;;;;;17.45;12.55;;;;;;;;;;5136713;27;20203;-65
2021/03/07 07:49:38;;;;;;;17.17;13.63;;;;;;;;;;5136292;27;20737;-65
2021/03/07 07:52:19;;;;;;;19.38;13.73;;;;;;;;;;5135971;27;20231;-65
2021/03/07 07:54:50;;;;;;;17.23;13.55;;;;;;;;;;5135171;27;20729;-65
2021/03/07 07:57:31;;;;;;;19.77;12.38;;;;;;;;;;5136015;27;20216;-65
2021/03/07 07:59:58;;;;;;;13.95;11.90;;;;;;;;;;5134897;27;20279;-65
2021/03/07 08:02:40;;;;;;;15.85;11.40;;;;;;;;;;5136416;27;20316;-65
2021/03/07 08:05:31;;;;;;;18.08;13.00;;;;;;;;;;5135889;27;20224;-64
2021/03/07 08:07:58;;;;;;;13.30;11.95;;;;;;;;;;5137077;27;20232;-64
2021/03/07 08:10:41;;;;;;;16.88;11.82;;;;;;;;;;5135813;27;20308;-63
2021/03/07 08:13:09;;;;;;;15.55;11.63;;;;;;;;;;5133629;27;20227;-64
2021/03/07 08:15:43;;;;;;;18.98;12.20;;;;;;;;;;5135585;27;20192;-64
2021/03/07 08:18:10;;;;;;;15.10;12.55;;;;;;;;;;5136120;27;20303;-64
2021/03/07 08:21:04;;;;;;;14.98;11.18;;;;;;;;;;5135872;27;20192;-64
2021/03/07 08:23:52;;;;;;;14.63;10.40;;;;;;;;;;5087494;27;20204;-64
2021/03/07 08:26:18;;;;;;;13.98;10.82;;;;;;;;;;5136333;27;20216;-65
2021/03/07 08:28:46;;;;;;;17.73;11.65;;;;;;;;;;5135977;27;20661;-65
2021/03/07 08:31:31;;;;;;;16.50;11.45;;;;;;;;;;5135338;27;20230;-65
2021/03/07 08:34:12;;;;;;;11.90;10.32;;;;;;;;;;5136036;27;20224;-64
2021/03/07 08:36:52;;;;;;;13.77;11.27;;;;;;;;;;5134443;27;20620;-64
2021/03/07 08:39:20;;;;;;;17.95;10.18;;;;;;;;;;5135629;27;20223;-63
2021/03/07 08:41:57;;;;;;;12.05;9.60;;;;;;;;;;5135615;27;20235;-63
2021/03/07 08:44:24;;;;;;;14.65;9.63;;;;;;;;;;5133127;27;20231;-64
2021/03/07 08:46:50;;;;;;;11.00;9.77;;;;;;;;;;5135142;27;20192;-63
2021/03/07 08:49:18;;;;;;;13.73;11.80;;;;;;;;;;5135652;27;20283;-64
2021/03/07 08:51:46;;;;;;;12.82;11.52;;;;;;;;;;5134834;27;20287;-64
2021/03/07 08:54:13;;;;;;;15.80;11.65;;;;;;;;;;5135301;27;20196;-64
2021/03/07 08:56:42;;;;;;;10.15;8.50;;;;;;;;;;5134729;27;20713;-64
2021/03/07 08:59:09;;;;;;;11.07;8.55;;;;;;;;;;5134888;27;20304;-64
2021/03/07 09:01:36;;;;;;;13.35;8.10;;;;;;;;;;5134712;27;20228;-64
2021/03/07 09:04:04;;;;;;;15.40;9.75;;;;;;;;;;5135548;27;20634;-64
2021/03/07 09:06:31;;;;;;;11.02;9.93;;;;;;;;;;5135095;27;20549;-64
2021/03/07 09:09:08;;;;;;;12.00;9.52;;;;;;;;;;5134741;27;20287;-64
2021/03/07 09:11:35;;;;;;;15.88;9.07;;;;;;;;;;5134948;27;20184;-64
2021/03/07 09:14:03;;;;;;;11.15;9.65;;;;;;;;;;5133313;27;20242;-64
2021/03/07 09:16:37;;;;;;;10.82;8.10;;;;;;;;;;5134822;27;20548;-65
2021/03/07 09:19:04;;;;;;;5.95;5.40;;;;;;;;;;5134990;27;20303;-65
2021/03/07 09:21:31;;;;;;;8.55;5.88;;;;;;;;;;5134370;27;20227;-64
2021/03/07 09:23:57;;;;;;;7.65;5.63;;;;;;;;;;5134986;27;20275;-64
2021/03/07 09:26:24;;;;;;;10.30;6.15;;;;;;;;;;5134532;27;20227;-64
2021/03/07 09:28:52;;;;;;;6.57;5.80;;;;;;;;;;5134378;27;20240;-64
2021/03/07 09:31:20;;;;;;;10.25;7.28;;;;;;;;;;5134872;27;20203;-65
2021/03/07 09:33:48;;;;;;;10.10;8.20;;;;;;;;;;5134367;27;20278;-64
2021/03/07 09:36:15;;;;;;;9.65;5.80;;;;;;;;;;5134255;27;20196;-64
2021/03/07 09:38:49;;;;;;;9.35;4.50;;;;;;;;;;5134755;27;20247;-65
2021/03/07 09:41:17;;;;;;;5.38;4.80;;;;;;;;;;5134187;27;20235;-64
2021/03/07 09:43:45;;;;;;;6.65;4.40;;;;;;;;;;5134286;27;20243;-64
2021/03/07 09:46:12;;;;;;;4.15;3.75;;;;;;;;;;5132745;27;20243;-64
2021/03/07 09:48:40;;;;;;;5.25;4.18;;;;;;;;;;5134468;27;20239;-65
2021/03/07 09:51:11;;;;;;;5.13;4.72;;;;;;;;;;5134228;27;20641;-65
2021/03/07 09:53:38;;;;;;;3.70;3.40;;;;;;;;;;5134257;28;20264;-65
2021/03/07 09:56:05;;;;;;;4.45;3.78;;;;;;;;;;5133962;28;20653;-65
2021/03/07 09:58:39;;;;;;;6.40;3.60;;;;;;;;;;5134368;28;20207;-64
2021/03/07 10:01:06;;;;;;;6.47;3.58;;;;;;;;;;5134061;28;20216;-65
2021/03/07 10:03:33;;;;;;;6.57;3.50;;;;;;;;;;5134141;28;20193;-64
2021/03/07 10:06:05;;;;;;;4.30;3.95;;;;;;;;;;5133998;28;20199;-65
2021/03/07 10:08:33;;;;;;;4.18;3.88;;;;;;;;;;5134046;28;20199;-65
2021/03/07 10:11:10;;;;;;;9.38;3.45;;;;;;;;;;5134276;28;20315;-64
2021/03/07 10:13:37;;;;;;;3.65;3.33;;;;;;;;;;5134106;28;20677;-65
2021/03/07 10:16:05;;;;;;;8.48;2.50;;;;;;;;;;5133844;28;20224;-64
2021/03/07 10:18:32;;;;;;;2.60;2.40;;;;;;;;;;5132396;28;20299;-65
2021/03/07 10:20:59;;;;;;;3.60;2.40;;;;;;;;;;5133684;28;20196;-64
2021/03/07 10:23:27;;;;;;;2.53;2.33;;;;;;;;;;5133848;28;20235;-65
2021/03/07 10:25:54;;;;;;;2.63;2.40;;;;;;;;;;5134085;28;20234;-64
2021/03/07 10:28:22;;;;;;;2.28;2.17;;;;;;;;;;5134174;28;20196;-65
2021/03/07 10:30:50;;;;;;;2.20;2.10;;;;;;;;;;5134246;28;20243;-65
2021/03/07 10:33:20;;;;;;;2.47;2.08;;;;;;;;;;5133590;28;20252;-65
2021/03/07 10:36:00;;;;;;;2.85;1.90;;;;;;;;;;5133739;28;20202;-65
2021/03/07 10:38:28;;;;;;;2.83;2.25;;;;;;;;;;5133418;28;20255;-65
2021/03/07 10:40:55;;;;;;;2.38;2.28;;;;;;;;;;5133490;28;20328;-65
2021/03/07 10:43:22;;;;;;;2.70;2.50;;;;;;;;;;5133481;28;20231;-64
2021/03/07 10:45:48;;;;;;;3.70;2.50;;;;;;;;;;5133666;28;20197;-65
2021/03/07 10:48:16;;;;;;;2.03;1.83;;;;;;;;;;5131530;28;20253;-65
2021/03/07 10:50:43;;;;;;;3.38;2.13;;;;;;;;;;5133318;28;20197;-65
2021/03/07 10:53:10;;;;;;;1.65;1.55;;;;;;;;;;5133937;28;20196;-64
2021/03/07 10:55:38;;;;;;;2.20;2.00;;;;;;;;;;5134156;28;20193;-64
2021/03/07 10:58:05;;;;;;;2.50;2.20;;;;;;;;;;5133650;28;20583;-64
2021/03/07 11:00:32;;;;;;;2.00;1.90;;;;;;;;;;5134232;27;20188;-64
2021/03/07 11:03:00;;;;;;;2.22;2.03;;;;;;;;;;5137029;27;20705;-65
2021/03/07 11:05:27;;;;;;;2.70;2.50;;;;;;;;;;5136973;27;20551;-64
2021/03/07 11:07:54;;;;;;;3.58;2.08;;;;;;;;;;5137668;27;20253;-64
2021/03/07 11:10:22;;;;;;;4.43;2.15;;;;;;;;;;5136924;27;20228;-64
2021/03/07 11:12:50;;;;;;;1.95;1.85;;;;;;;;;;5136863;27;20237;-65
2021/03/07 11:15:17;;;;;;;2.10;1.88;;;;;;;;;;5136963;27;20552;-65
2021/03/07 11:17:44;;;;;;;2.00;1.90;;;;;;;;;;5134933;27;20725;-64
2021/03/07 11:20:12;;;;;;;1.80;1.70;;;;;;;;;;5137044;27;20196;-64
2021/03/07 11:22:38;;;;;;;2.35;1.65;;;;;;;;;;5136513;27;20222;-64
2021/03/07 11:25:06;;;;;;;2.00;1.90;;;;;;;;;;5136716;27;20239;-64
2021/03/07 11:27:33;;;;;;;2.15;1.95;;;;;;;;;;5136681;27;20207;-65
2021/03/07 11:30:02;;;;;;;2.22;1.95;;;;;;;;;;5136363;27;20193;-64
2021/03/07 11:32:28;;;;;;;2.05;1.85;;;;;;;;;;5136784;27;20543;-64
2021/03/07 11:34:55;;;;;;;1.95;1.85;;;;;;;;;;5136850;27;20211;-64
2021/03/07 11:37:22;;;;;;;2.25;2.08;;;;;;;;;;5136908;27;20206;-64
2021/03/07 11:39:49;;;;;;;3.42;2.55;;;;;;;;;;5136814;27;20279;-65
2021/03/07 11:42:15;;;;;;;2.10;2.00;;;;;;;;;;5136730;27;20242;-65
2021/03/07 11:44:42;;;;;;;5.35;2.13;;;;;;;;;;5136668;27;20215;-64
2021/03/07 11:47:10;;;;;;;2.30;2.10;;;;;;;;;;5136678;27;20291;-64
2021/03/07 11:49:36;;;;;;;3.92;2.63;;;;;;;;;;5134477;27;20237;-64
2021/03/07 11:52:03;;;;;;;2.38;2.17;;;;;;;;;;5135963;27;20228;-65
2021/03/07 11:54:30;;;;;;;3.22;2.20;;;;;;;;;;5136245;27;20200;-65
2021/03/07 11:56:57;;;;;;;1.85;1.75;;;;;;;;;;5136123;27;20192;-65
2021/03/07 11:59:23;;;;;;;2.47;2.35;;;;;;;;;;5135841;27;20307;-64
2021/03/07 12:01:50;;;;;;;2.35;2.15;;;;;;;;;;5136112;27;20284;-64
2021/03/07 12:04:18;;;;;;;3.08;2.20;;;;;;;;;;5136116;27;20705;-64
2021/03/07 12:06:45;;;;;;;2.40;2.20;;;;;;;;;;5136311;27;20329;-64
2021/03/07 12:09:12;;;;;;;3.58;2.40;;;;;;;;;;5135148;27;20676;-64
2021/03/07 12:11:39;;;;;;;2.10;2.00;;;;;;;;;;5135711;27;20275;-64
2021/03/07 12:14:05;;;;;;;2.90;2.40;;;;;;;;;;5135134;27;20325;-65
2021/03/07 12:16:32;;;;;;;2.35;2.20;;;;;;;;;;5135756;27;20271;-64
2021/03/07 12:18:59;;;;;;;2.97;2.72;;;;;;;;;;5133133;27;20642;-65
2021/03/07 12:21:27;;;;;;;2.35;2.15;;;;;;;;;;5134937;27;20241;-64
2021/03/07 12:23:53;;;;;;;2.85;2.65;;;;;;;;;;5135261;27;20705;-65
2021/03/07 12:26:20;;;;;;;2.58;2.30;;;;;;;;;;5134928;27;20247;-64
2021/03/07 12:28:47;;;;;;;2.63;2.42;;;;;;;;;;5135063;27;20626;-64
2021/03/07 12:31:14;;;;;;;2.88;2.67;;;;;;;;;;5134996;27;20342;-65
2021/03/07 12:33:41;;;;;;;3.10;2.90;;;;;;;;;;5134648;27;20228;-64
2021/03/07 12:36:08;;;;;;;2.50;2.33;;;;;;;;;;5134981;27;20228;-64
2021/03/07 12:38:36;;;;;;;3.88;2.15;;;;;;;;;;5134711;27;20251;-64
2021/03/07 12:41:03;;;;;;;6.30;2.80;;;;;;;;;;5134600;27;20277;-64
2021/03/07 12:43:29;;;;;;;3.13;2.40;;;;;;;;;;5134542;27;20193;-65
2021/03/07 12:45:56;;;;;;;3.80;2.50;;;;;;;;;;5134465;27;20290;-64
2021/03/07 12:48:23;;;;;;;2.20;2.10;;;;;;;;;;5134465;27;20237;-65
2021/03/07 12:50:50;;;;;;;4.40;2.30;;;;;;;;;;5133343;27;20215;-64
2021/03/07 12:53:17;;;;;;;3.90;3.00;;;;;;;;;;5134320;27;20189;-64
2021/03/07 12:55:44;;;;;;;2.85;2.65;;;;;;;;;;5134281;27;20203;-64
2021/03/07 12:58:11;;;;;;;4.18;2.70;;;;;;;;;;5135093;27;20677;-65
2021/03/07 13:00:38;;;;;;;2.72;2.53;;;;;;;;;;5134778;27;20272;-65
2021/03/07 13:03:05;;;;;;;3.03;2.83;;;;;;;;;;5134626;27;20228;-65
2021/03/07 13:05:31;;;;;;;2.78;2.50;;;;;;;;;;5134136;27;20200;-64
2021/03/07 13:07:58;;;;;;;5.78;2.70;;;;;;;;;;5134301;27;20193;-65
2021/03/07 13:10:25;;;;;;;2.70;2.50;;;;;;;;;;5134047;27;20772;-65
2021/03/07 13:12:53;;;;;;;2.97;2.67;;;;;;;;;;5134090;27;20653;-64
2021/03/07 13:15:20;;;;;;;3.40;2.53;;;;;;;;;;5134428;27;20197;-65
2021/03/07 13:17:46;;;;;;;4.20;2.70;;;;;;;;;;5133882;27;20730;-65
2021/03/07 13:20:14;;;;;;;3.45;2.40;;;;;;;;;;5131912;27;20713;-65
2021/03/07 13:22:41;;;;;;;7.80;2.60;;;;;;;;;;5133411;27;20291;-64
2021/03/07 13:25:08;;;;;;;2.70;2.40;;;;;;;;;;5133328;27;20646;-65
2021/03/07 13:27:35;;;;;;;2.90;2.65;;;;;;;;;;5133893;27;20717;-64
2021/03/07 13:30:04;;;;;;;3.50;2.40;;;;;;;;;;5133471;27;20195;-64
2021/03/07 13:32:31;;;;;;;4.53;2.60;;;;;;;;;;5133528;27;20771;-64
2021/03/07 13:34:57;;;;;;;2.42;2.22;;;;;;;;;;5133415;27;20207;-65
2021/03/07 13:37:24;;;;;;;3.00;2.70;;;;;;;;;;5133643;27;20201;-64
2021/03/07 13:39:51;;;;;;;4.20;2.65;;;;;;;;;;5134101;27;20671;-64
2021/03/07 13:42:18;;;;;;;3.08;2.88;;;;;;;;;;5133978;27;20257;-66
2021/03/07 13:44:45;;;;;;;4.10;3.00;;;;;;;;;;5133554;27;20202;-65
2021/03/07 13:47:13;;;;;;;3.45;2.88;;;;;;;;;;5133940;27;20285;-65
2021/03/07 13:49:39;;;;;;;3.28;2.58;;;;;;;;;;5133509;27;20289;-65
2021/03/07 13:52:06;;;;;;;3.15;2.85;;;;;;;;;;5131411;27;20271;-64
2021/03/07 13:54:33;;;;;;;3.50;3.17;;;;;;;;;;5133611;28;20346;-64
2021/03/07 13:57:00;;;;;;;2.72;2.53;;;;;;;;;;5133651;28;20287;-64
2021/03/07 13:59:27;;;;;;;6.15;2.70;;;;;;;;;;5133646;28;20303;-65
2021/03/07 14:01:54;;;;;;;2.90;2.70;;;;;;;;;;5133964;28;20631;-65
2021/03/07 14:04:22;;;;;;;3.08;2.65;;;;;;;;;;5133647;28;20204;-64
2021/03/07 14:06:48;;;;;;;6.68;2.85;;;;;;;;;;5133104;28;20298;-66
2021/03/07 14:09:15;;;;;;;3.55;3.25;;;;;;;;;;5133596;28;20255;-64
2021/03/07 14:11:42;;;;;;;5.47;3.25;;;;;;;;;;5134167;28;20219;-64
2021/03/07 14:14:08;;;;;;;3.88;2.97;;;;;;;;;;5132583;28;20667;-64
2021/03/07 14:16:35;;;;;;;5.63;3.58;;;;;;;;;;5133179;28;20661;-65
2021/03/07 14:19:02;;;;;;;4.32;2.80;;;;;;;;;;5133276;28;20220;-65
2021/03/07 14:21:29;;;;;;;3.85;3.03;;;;;;;;;;5131879;28;20779;-65
2021/03/07 14:23:56;;;;;;;6.97;3.45;;;;;;;;;;5133812;28;20296;-65
2021/03/07 14:26:23;;;;;;;3.80;3.55;;;;;;;;;;5133381;28;20188;-65
2021/03/07 14:28:50;;;;;;;9.88;4.22;;;;;;;;;;5133325;28;20658;-65
2021/03/07 14:31:17;;;;;;;3.72;2.70;;;;;;;;;;5133478;28;20283;-65